OM-0005 weather

Armed Forces Beach Club Helipad
Muscat, Masqat Governorate, Oman

Public forecast

Using degrees Celsius for public forecast. Weather courtesy of forecast.io.

METAR (pilot weather report)

Closest report is Muscat International Airport, 2.7 nm (5.0 km) WSW. Retrieved 2019/04/18 17:50 UTC (44 minutes ago):

OOMS 181750Z 06003KT CAVOK 28/22 Q1011 NOSIG

TAF (pilot weather forecast)

Closest forecast is Muscat International Airport, 2.7 nm (5.0 km) WSW. Retrieved 2019/04/18 18:00 UTC (34 minutes ago):

TAF OOMS 181700Z 1818/1924 VRB02KT 8000 BKN050 TEMPO 1820/1902 20008KT PROB30 TEMPO 1821/1902 5000 BR SCT020 BECMG 1906/1908 05012KT BECMG 1918/1920 25005KT